Time;durP1;ratioP1;P1;durP2;ratioP2;P2;SDS_P1;SDS_P2;PMS_P1;PMS_P2;Temp;Humidity;BMP_temperature;BMP_pressure;BME280_temperature;BME280_humidity;BME280_pressure;Samples;Min_cycle;Max_cycle;Signal;HPM_P1;HPM_P2
2022/07/04 00:01:53;;;;;;;10.20;4.72;;;;;;;16.23;75.17;101426.24;1650249;85;21686;-93
2022/07/04 00:04:20;;;;;;;4.53;3.58;;;;;;;16.20;75.21;101422.66;1669361;84;21176;-93
2022/07/04 00:06:47;;;;;;;4.78;3.92;;;;;;;15.92;75.26;101379.39;1669322;84;21517;-92
2022/07/04 00:09:13;;;;;;;6.15;4.03;;;;;;;16.05;75.32;101408.77;1668890;84;21106;-92
2022/07/04 00:11:40;;;;;;;5.17;4.12;;;;;;;16.13;75.44;101427.89;1669042;84;21454;-92
2022/07/04 00:14:14;;;;;;;7.90;4.33;;;;;;;16.11;75.45;101424.77;1666855;84;21767;-91
2022/07/04 00:16:36;;;;;;;7.55;4.15;;;;;;;16.09;75.54;101419.88;1668060;85;21211;-91
2022/07/04 00:19:02;;;;;;;8.73;4.47;;;;;;;16.08;75.62;101420.30;1670172;84;21553;-92
2022/07/04 00:21:31;;;;;;;6.65;4.65;;;;;;;16.07;75.71;101417.20;1668731;84;21099;-91
2022/07/04 00:24:00;;;;;;;7.83;4.20;;;;;;;16.07;75.76;101411.89;1667660;84;21127;-92
2022/07/04 00:26:29;;;;;;;7.35;4.42;;;;;;;16.05;75.75;101413.64;1638379;85;21135;-91
2022/07/04 00:28:56;;;;;;;6.75;4.15;;;;;;;16.03;75.81;101406.50;1669243;84;21083;-92
2022/07/04 00:31:24;;;;;;;4.80;4.35;;;;;;;16.02;75.94;101412.26;1649480;84;21688;-91
2022/07/04 00:33:53;;;;;;;6.90;4.60;;;;;;;16.02;76.02;101410.05;1665130;85;21102;-92
2022/07/04 00:36:22;;;;;;;6.55;4.08;;;;;;;16.00;76.08;101406.04;1671869;83;21817;-92
2022/07/04 00:38:53;;;;;;;6.92;4.37;;;;;;;15.99;76.09;101414.89;1649399;85;23437;-91
2022/07/04 00:41:19;;;;;;;5.55;4.20;;;;;;;15.96;76.11;101414.84;1677640;83;21098;-92
2022/07/04 00:44:06;;;;;;;9.63;4.50;;;;;;;15.94;76.18;101405.52;1678411;83;21106;-93
2022/07/04 00:46:34;;;;;;;8.35;4.55;;;;;;;15.83;76.23;101388.55;1670090;83;21099;-92
2022/07/04 00:49:12;;;;;;;7.33;4.00;;;;;;;15.91;76.30;101397.50;1668910;83;21088;-93
2022/07/04 00:51:42;;;;;;;7.28;4.20;;;;;;;15.90;76.38;101394.86;1647035;83;21091;-93
2022/07/04 00:54:18;;;;;;;6.35;4.15;;;;;;;15.88;76.47;101393.95;1675996;83;21099;-93
2022/07/04 00:56:48;;;;;;;8.53;4.40;;;;;;;15.88;76.51;101392.17;1668711;83;21593;-93
2022/07/04 00:59:15;;;;;;;6.80;3.90;;;;;;;15.89;76.56;101390.41;1676961;83;21198;-93
2022/07/04 01:01:42;;;;;;;4.78;4.00;;;;;;;15.87;76.56;101389.05;1678360;83;21094;-93
2022/07/04 01:04:11;;;;;;;6.95;4.65;;;;;;;15.84;76.64;101386.37;1671280;83;21739;-92
2022/07/04 01:06:40;;;;;;;6.92;4.42;;;;;;;15.84;76.67;101382.39;1674617;83;21096;-94
2022/07/04 01:09:07;;;;;;;8.18;3.95;;;;;;;15.83;76.72;101381.03;1671726;83;21067;-95
2022/07/04 01:11:34;;;;;;;4.87;3.98;;;;;;;15.82;76.75;101380.16;1678004;83;21154;-91
2022/07/04 01:14:01;;;;;;;5.42;4.33;;;;;;;15.82;76.80;101382.81;1678168;83;21102;-91
2022/07/04 01:16:27;;;;;;;7.10;4.17;;;;;;;15.80;76.86;101382.31;1678093;83;21753;-91
2022/07/04 01:18:55;;;;;;;8.10;4.58;;;;;;;15.81;76.89;101385.44;1678223;83;21576;-91
2022/07/04 01:21:21;;;;;;;7.15;3.90;;;;;;;15.80;76.92;101383.64;1678128;83;21671;-90
2022/07/04 01:23:48;;;;;;;10.38;4.75;;;;;;;15.78;76.93;101384.94;1677844;84;21354;-92
2022/07/04 01:26:15;;;;;;;6.83;4.17;;;;;;;15.75;76.94;101382.27;1677918;85;21727;-93
2022/07/04 01:28:45;;;;;;;7.35;4.08;;;;;;;15.76;77.07;101387.13;1678357;85;21774;-92
2022/07/04 01:31:16;;;;;;;9.15;3.80;;;;;;;15.73;77.11;101382.64;1697320;83;21074;-92
2022/07/04 01:33:42;;;;;;;6.08;4.10;;;;;;;15.71;77.23;101386.60;1655719;83;21094;-91
2022/07/04 01:36:11;;;;;;;6.83;4.17;;;;;;;15.70;77.25;101380.82;1676565;83;21636;-92
2022/07/04 01:42:16;;;;;;;8.65;3.77;;;;;;;15.67;77.41;101379.87;1669526;85;21783;-92
2022/07/04 01:49:24;;;;;;;6.80;4.37;;;;;;;15.68;77.52;101390.97;1630702;84;21121;-91
2022/07/04 01:51:51;;;;;;;7.00;4.30;;;;;;;15.67;77.56;101382.53;1664080;84;21589;-92
2022/07/04 01:54:20;;;;;;;5.58;3.72;;;;;;;15.67;77.64;101383.86;1642106;86;21098;-92
2022/07/04 01:56:49;;;;;;;6.58;4.00;;;;;;;15.67;77.66;101383.86;1657976;85;21990;-93
2022/07/04 01:59:18;;;;;;;6.58;4.20;;;;;;;15.67;77.72;101379.47;1671870;84;21096;-93
2022/07/04 02:01:45;;;;;;;6.75;4.33;;;;;;;15.68;77.67;101385.66;1689448;83;21105;-92
2022/07/04 02:04:18;;;;;;;5.35;3.52;;;;;;;15.66;77.63;101386.95;1670495;84;22234;-92
2022/07/04 02:06:45;;;;;;;5.05;4.40;;;;;;;15.64;77.64;101387.38;1669743;84;21115;-91
2022/07/04 02:09:16;;;;;;;7.00;4.15;;;;;;;15.64;77.76;101382.52;1688584;82;21087;-91
2022/07/04 02:14:32;;;;;;;7.08;3.62;;;;;;;15.65;77.77;101381.63;1666363;85;21099;-92
2022/07/04 02:16:58;;;;;;;8.75;4.30;;;;;;;15.66;77.78;101383.42;1683418;84;21110;-92
2022/07/04 02:19:29;;;;;;;10.75;4.05;;;;;;;15.67;77.78;101386.52;1696067;83;21090;-92
2022/07/04 02:22:02;;;;;;;4.97;3.85;;;;;;;15.70;77.77;101378.61;1671248;84;21861;-92
2022/07/04 02:24:31;;;;;;;4.12;3.72;;;;;;;15.71;77.67;101383.03;1660669;84;21112;-93
2022/07/04 02:27:01;;;;;;;5.00;4.00;;;;;;;15.70;77.76;101372.86;1717151;83;21058;-92
2022/07/04 02:29:28;;;;;;;7.47;3.80;;;;;;;15.73;77.81;101376.01;1718453;81;21113;-91
2022/07/04 02:31:58;;;;;;;5.95;4.17;;;;;;;15.78;77.87;101376.97;1687105;84;21097;-93
2022/07/04 02:34:25;;;;;;;6.35;3.77;;;;;;;15.82;77.87;101375.25;1674771;84;23363;-92
2022/07/04 02:36:54;;;;;;;6.15;4.28;;;;;;;15.86;77.96;101376.66;1646847;83;21094;-93
2022/07/04 02:39:25;;;;;;;6.15;4.25;;;;;;;15.93;78.06;101377.62;1686715;83;21137;-93
2022/07/04 02:41:58;;;;;;;5.78;3.98;;;;;;;16.00;78.00;101373.30;1681887;84;21106;-94
2022/07/04 02:44:28;;;;;;;4.97;4.15;;;;;;;16.08;77.93;101373.82;1679825;83;21046;-94
2022/07/04 02:47:05;;;;;;;6.25;3.95;;;;;;;16.15;77.92;101372.59;1636519;85;22380;-94
2022/07/04 02:49:39;;;;;;;6.75;4.28;;;;;;;16.24;77.89;101374.03;1686741;83;21087;-95
2022/07/04 02:52:07;;;;;;;5.25;3.60;;;;;;;16.32;77.82;101377.21;1702971;83;21091;-94
2022/07/04 02:54:36;;;;;;;6.53;3.77;;;;;;;16.43;77.78;101381.33;1661369;84;21102;-94
2022/07/04 02:57:07;;;;;;;8.00;4.50;;;;;;;16.50;77.60;101369.89;1680652;85;21142;-93
2022/07/04 02:59:42;;;;;;;4.60;3.72;;;;;;;16.58;77.43;101378.39;1664623;85;21062;-95
2022/07/04 03:02:10;;;;;;;5.47;3.42;;;;;;;16.57;77.39;101352.67;1676521;83;21650;-92
2022/07/04 03:04:39;;;;;;;6.30;3.72;;;;;;;16.74;77.21;101377.64;1681184;83;21101;-92
2022/07/04 03:07:10;;;;;;;8.38;3.52;;;;;;;16.82;77.15;101379.98;1680457;83;21086;-93
2022/07/04 03:09:40;;;;;;;5.15;3.45;;;;;;;16.85;76.89;101372.47;1671891;84;21078;-91
2022/07/04 03:12:09;;;;;;;5.95;3.45;;;;;;;16.98;76.90;101385.44;1672823;83;21081;-93
2022/07/04 03:14:36;;;;;;;7.50;3.75;;;;;;;17.03;76.68;101378.40;1677199;83;21099;-92
2022/07/04 03:17:07;;;;;;;3.87;3.47;;;;;;;17.06;76.53;101376.66;1677423;84;21101;-93
2022/07/04 03:19:41;;;;;;;5.70;3.02;;;;;;;17.08;76.36;101377.56;1654898;83;21114;-92
2022/07/04 03:22:06;;;;;;;4.97;3.35;;;;;;;17.11;76.23;101383.33;1679460;83;21082;-91
2022/07/04 03:24:36;;;;;;;5.12;3.30;;;;;;;17.13;76.10;101379.36;1679996;83;21735;-92
2022/07/04 03:27:01;;;;;;;7.55;3.33;;;;;;;17.17;76.08;101378.05;1679381;83;21090;-90
2022/07/04 03:29:30;;;;;;;3.50;3.15;;;;;;;17.24;75.95;101377.67;1685359;84;21552;-90
2022/07/04 03:32:00;;;;;;;5.00;3.30;;;;;;;17.36;76.19;101378.20;1687421;83;21653;-93
2022/07/04 03:34:29;;;;;;;5.20;3.22;;;;;;;17.96;77.57;101375.50;1701183;82;21556;-92
2022/07/04 03:36:56;;;;;;;5.45;3.27;;;;;;;18.89;77.79;101371.31;1659559;84;21704;-92
2022/07/04 03:39:25;;;;;;;6.53;3.10;;;;;;;20.22;77.71;101373.29;1684187;84;21063;-91
2022/07/04 03:42:09;;;;;;;7.90;3.20;;;;;;;21.20;75.32;101364.17;1684039;84;21126;-90
2022/07/04 03:44:42;;;;;;;5.33;2.72;;;;;;;21.30;72.57;101357.38;1683606;83;21142;-93
2022/07/04 03:47:10;;;;;;;4.97;3.27;;;;;;;21.16;71.33;101364.19;1678624;85;21087;-92
2022/07/04 03:49:40;;;;;;;3.67;2.77;;;;;;;21.14;71.13;101365.11;1681988;83;21972;-89
2022/07/04 03:52:11;;;;;;;6.90;2.67;;;;;;;21.43;71.40;101362.14;1686446;83;21102;-92
2022/07/04 03:54:37;;;;;;;5.58;2.72;;;;;;;21.86;70.66;101365.71;1675882;85;21105;-92
2022/07/04 03:57:05;;;;;;;4.70;2.52;;;;;;;22.89;71.90;101366.98;1676108;83;21058;-90
2022/07/04 03:59:49;;;;;;;5.58;2.92;;;;;;;24.92;71.53;101365.18;1676994;83;21075;-95
2022/07/04 04:02:12;;;;;;;4.20;2.60;;;;;;;26.85;69.04;101371.41;1679851;83;21826;-94
2022/07/04 04:15:24;;;;;;;5.50;2.45;;;;;;;32.86;57.58;101369.53;1653953;83;21158;-93
2022/07/04 04:22:04;;;;;;;;;;;;;;;;;;;;;
2022/07/04 04:24:36;;;;;;;3.10;1.80;;;;;;;33.15;49.38;101357.39;1676210;82;21122;-96
2022/07/04 04:27:26;;;;;;;2.50;2.00;;;;;;;32.29;48.36;101353.23;1671828;84;21055;-96
2022/07/04 04:29:51;;;;;;;3.67;2.02;;;;;;;31.80;49.02;101360.02;1670545;83;21133;-94
2022/07/04 04:32:24;;;;;;;4.60;2.22;;;;;;;31.37;47.76;101355.00;1675550;83;21127;-92
2022/07/04 04:34:57;;;;;;;4.28;2.10;;;;;;;30.00;47.24;101351.36;1679784;83;21241;-93
2022/07/04 04:37:29;;;;;;;3.55;2.00;;;;;;;28.56;47.80;101356.64;1649658;83;21069;-93
2022/07/04 04:40:01;;;;;;;3.40;2.40;;;;;;;27.63;49.14;101354.30;1660705;84;21083;-92
2022/07/04 04:42:43;;;;;;;4.95;2.12;;;;;;;28.41;50.58;101357.23;1672516;83;21061;-91
2022/07/04 04:45:10;;;;;;;4.83;2.43;;;;;;;29.15;50.26;101351.06;1688835;83;21832;-86
2022/07/04 04:47:43;;;;;;;3.83;1.95;;;;;;;30.92;49.69;101348.27;1701115;82;21066;-89
2022/07/04 04:50:11;;;;;;;3.10;2.02;;;;;;;32.53;48.62;101350.95;1706881;82;21118;-87
2022/07/04 04:52:41;;;;;;;5.47;2.30;;;;;;;34.31;47.28;101349.22;1688183;83;21174;-92
2022/07/04 04:55:26;;;;;;;5.37;2.45;;;;;;;35.89;45.61;101345.74;1657674;84;21488;-89
2022/07/04 04:58:15;;;;;;;9.93;2.83;;;;;;;37.08;43.76;101350.62;1697569;82;21119;-89
2022/07/04 05:00:44;;;;;;;6.10;2.00;;;;;;;38.15;42.56;101344.47;1672287;83;21085;-89
2022/07/04 05:03:13;;;;;;;4.28;2.25;;;;;;;39.35;40.74;101339.31;1684596;82;21089;-89
2022/07/04 05:05:48;;;;;;;3.75;2.20;;;;;;;40.13;39.40;101338.87;1700791;82;21098;-89
2022/07/04 05:08:36;;;;;;;7.85;2.15;;;;;;;40.72;38.00;101344.03;1700022;82;21118;-88
2022/07/04 05:11:31;;;;;;;7.65;2.35;;;;;;;41.29;36.88;101346.44;1670780;84;22260;-90
2022/07/04 05:14:04;;;;;;;10.30;1.90;;;;;;;41.70;35.57;101340.70;1674458;83;21023;-89
2022/07/04 05:20:59;;;;;;;9.15;2.02;;;;;;;42.55;33.86;101353.90;1667077;84;21493;-95
2022/07/04 05:23:26;;;;;;;3.27;1.95;;;;;;;43.20;32.37;101347.27;1685015;84;21817;-95
2022/07/04 05:25:52;;;;;;;7.05;2.77;;;;;;;41.18;30.91;101343.32;1688594;84;21759;-91
2022/07/04 05:28:19;;;;;;;2.80;2.05;;;;;;;38.84;31.53;101336.80;1711056;83;21081;-91
2022/07/04 05:30:46;;;;;;;12.23;2.70;;;;;;;36.82;32.02;101338.41;1688454;84;21105;-92
2022/07/04 05:33:12;;;;;;;4.10;2.10;;;;;;;35.28;33.11;101336.39;1686716;84;21113;-94
2022/07/04 05:35:42;;;;;;;5.67;2.12;;;;;;;34.80;34.61;101332.79;1661956;84;21164;-95
2022/07/04 05:38:12;;;;;;;5.28;2.35;;;;;;;35.88;35.28;101330.78;1679655;83;21975;-94
2022/07/04 05:40:41;;;;;;;8.38;2.15;;;;;;;37.34;34.60;101337.63;1669645;84;21102;-94
2022/07/04 05:43:08;;;;;;;4.17;2.12;;;;;;;38.61;33.82;101332.37;1669797;85;21420;-95
2022/07/04 05:45:42;;;;;;;3.67;2.00;;;;;;;39.40;32.47;101332.91;1663161;84;21082;-95
2022/07/04 05:48:12;;;;;;;3.15;1.75;;;;;;;38.16;31.23;101329.23;1669588;85;21280;-94
2022/07/04 05:50:39;;;;;;;5.00;2.20;;;;;;;36.35;31.51;101331.89;1654532;84;22043;-94
2022/07/04 05:53:08;;;;;;;5.03;1.98;;;;;;;35.10;32.54;101329.83;1669347;85;21106;-93
2022/07/04 05:55:47;;;;;;;3.37;1.70;;;;;;;34.32;33.33;101329.63;1652322;84;21123;-94
2022/07/04 05:58:04;;;;;;;2.87;1.70;;;;;;;33.62;33.78;101329.91;1669516;85;21135;-94
2022/07/04 06:00:41;;;;;;;2.72;1.90;;;;;;;32.83;34.27;101326.98;1670222;84;21039;-94
2022/07/04 06:03:08;;;;;;;4.20;1.75;;;;;;;32.03;34.72;101319.78;1669671;85;21843;-94
2022/07/04 06:05:35;;;;;;;7.87;2.10;;;;;;;31.35;35.47;101318.84;1669847;84;21075;-94
2022/07/04 06:08:01;;;;;;;4.20;2.40;;;;;;;30.71;36.10;101313.52;1660496;85;21106;-94
2022/07/04 06:10:29;;;;;;;5.87;2.45;;;;;;;29.97;36.45;101314.36;1686013;84;21149;-93
2022/07/04 06:12:55;;;;;;;9.53;2.20;;;;;;;29.35;37.24;101324.41;1689079;84;21082;-94
2022/07/04 06:15:23;;;;;;;3.50;2.00;;;;;;;28.84;38.16;101326.58;1698279;83;21731;-94
2022/07/04 06:17:52;;;;;;;3.90;1.75;;;;;;;28.57;38.84;101321.86;1695370;83;21064;-95
2022/07/04 06:20:18;;;;;;;2.58;1.95;;;;;;;28.21;39.43;101301.16;1701171;82;21066;-93
2022/07/04 06:22:51;;;;;;;4.45;1.90;;;;;;;28.03;40.13;101315.84;1706007;82;21119;-94
2022/07/04 06:25:19;;;;;;;4.92;2.90;;;;;;;27.71;40.80;101311.64;1709268;83;22110;-95
2022/07/04 06:27:47;;;;;;;4.08;3.10;;;;;;;27.36;41.80;101317.87;1661237;83;21746;-91
2022/07/04 06:30:22;;;;;;;5.75;2.77;;;;;;;27.10;42.75;101320.11;1704860;82;21058;-93
2022/07/04 06:35:44;;;;;;;6.60;2.80;;;;;;;26.85;43.61;101316.03;1698050;83;21077;-95
2022/07/04 06:35:47;;;;;;;3.25;2.58;;;;;;;26.57;44.02;101320.48;1670430;83;21516;-90
2022/07/04 06:38:18;;;;;;;8.28;3.58;;;;;;;26.32;45.10;101321.75;1697110;82;21135;-92
2022/07/04 06:40:50;;;;;;;10.00;3.25;;;;;;;26.16;45.64;101318.63;1722126;81;21722;-95
2022/07/04 06:43:17;;;;;;;7.25;3.37;;;;;;;26.02;46.16;101318.67;1727258;82;21103;-95
2022/07/04 06:45:44;;;;;;;5.87;3.02;;;;;;;25.99;46.94;101320.50;1676941;84;21049;-96
2022/07/04 06:48:17;;;;;;;5.42;3.95;;;;;;;25.99;47.00;101327.72;1686573;84;21093;-95
2022/07/04 06:50:51;;;;;;;5.67;2.00;;;;;;;25.96;47.43;101326.01;1715111;82;21115;-96
2022/07/04 06:53:19;;;;;;;5.67;2.55;;;;;;;25.95;47.66;101320.18;1662502;85;21844;-96
2022/07/04 06:55:45;;;;;;;5.53;2.40;;;;;;;26.22;47.88;101331.05;1682353;83;21652;-95
2022/07/04 06:58:12;;;;;;;2.22;1.90;;;;;;;26.33;47.08;101311.83;1684687;83;21133;-96
2022/07/04 07:00:44;;;;;;;2.30;1.72;;;;;;;26.30;46.49;101294.41;1684595;83;21059;-95
2022/07/04 07:03:16;;;;;;;2.35;2.02;;;;;;;26.51;46.55;101323.88;1683890;85;21114;-95
2022/07/04 07:05:42;;;;;;;4.15;1.77;;;;;;;26.69;46.35;101325.09;1678759;83;22622;-96
2022/07/04 07:08:09;;;;;;;5.05;2.10;;;;;;;26.91;46.18;101327.97;1656684;84;21102;-95
2022/07/04 07:10:36;;;;;;;3.25;2.60;;;;;;;27.22;46.17;101325.09;1678555;83;21094;-94
2022/07/04 07:13:03;;;;;;;2.20;2.00;;;;;;;27.63;46.13;101325.45;1678537;83;22130;-95
2022/07/04 07:15:39;;;;;;;6.22;2.12;;;;;;;27.98;45.67;101327.79;1678663;85;21454;-95
2022/07/04 07:18:03;;;;;;;5.95;2.17;;;;;;;28.25;45.47;101322.66;1676283;83;21818;-95
2022/07/04 07:20:30;;;;;;;2.90;2.10;;;;;;;28.53;45.16;101324.29;1678053;84;21663;-95
2022/07/04 07:23:01;;;;;;;5.47;2.00;;;;;;;28.73;44.91;101320.73;1678365;83;21254;-94
2022/07/04 07:25:31;;;;;;;6.55;1.87;;;;;;;28.89;44.61;101315.56;1683353;83;21079;-95
2022/07/04 07:27:58;;;;;;;6.65;1.80;;;;;;;29.01;44.42;101315.02;1678305;84;21103;-94
2022/07/04 07:30:30;;;;;;;3.87;1.75;;;;;;;29.03;44.25;101321.25;1657056;84;21689;-94
2022/07/04 07:33:02;;;;;;;2.65;1.70;;;;;;;28.95;43.93;101319.84;1658238;83;21102;-95
2022/07/04 07:35:33;;;;;;;4.90;1.50;;;;;;;28.64;43.72;101330.59;1678846;85;21315;-94
2022/07/04 07:38:06;;;;;;;4.08;1.55;;;;;;;28.49;43.71;101328.00;1680710;83;21086;-95
2022/07/04 07:40:33;;;;;;;4.78;1.75;;;;;;;28.36;43.57;101329.45;1677557;83;21075;-95
2022/07/04 07:43:14;;;;;;;4.75;1.17;;;;;;;28.29;43.37;101334.25;1643675;83;40721;-94
2022/07/04 07:45:35;;;;;;;2.22;1.30;;;;;;;28.17;43.32;101326.59;1676595;83;21589;-94
2022/07/04 07:48:03;;;;;;;5.92;1.20;;;;;;;28.02;43.39;101330.78;1678836;83;21125;-95
2022/07/04 07:50:30;;;;;;;7.30;1.62;;;;;;;28.00;43.61;101329.96;1659225;83;21063;-95
2022/07/04 07:53:00;;;;;;;5.33;1.50;;;;;;;28.12;43.48;101329.50;1679040;83;21576;-95
2022/07/04 07:55:27;;;;;;;5.72;1.98;;;;;;;28.33;43.25;101334.53;1656693;84;21844;-95
2022/07/04 07:58:01;;;;;;;5.72;1.75;;;;;;;28.61;42.74;101330.73;1678477;83;21083;-95
2022/07/04 08:00:28;;;;;;;2.40;1.50;;;;;;;28.80;42.37;101333.08;1678604;83;21588;-96
2022/07/04 08:05:40;;;;;;;3.15;1.50;;;;;;;28.87;41.71;101327.81;1678300;85;21118;-95
2022/07/04 08:08:12;;;;;;;5.10;1.65;;;;;;;28.77;41.47;101331.84;1678322;83;21840;-95
2022/07/04 08:10:41;;;;;;;1.55;1.20;;;;;;;28.58;41.58;101333.56;1678660;83;21158;-95
2022/07/04 08:13:08;;;;;;;4.55;1.47;;;;;;;28.38;41.71;101337.03;1660212;83;21067;-94
2022/07/04 08:15:38;;;;;;;6.25;3.85;;;;;;;28.07;41.74;101335.08;1678646;83;21067;-95
2022/07/04 08:18:06;;;;;;;4.22;1.60;;;;;;;27.65;41.98;101342.98;1686701;83;21099;-95
2022/07/04 08:20:35;;;;;;;2.47;1.80;;;;;;;27.30;42.38;101343.30;1692663;83;22169;-95
2022/07/04 08:23:02;;;;;;;2.33;1.55;;;;;;;27.03;42.56;101348.27;1678876;83;21533;-95
2022/07/04 08:25:32;;;;;;;5.85;2.00;;;;;;;26.74;42.77;101355.07;1678700;83;21121;-94
2022/07/04 08:27:59;;;;;;;5.00;1.70;;;;;;;26.45;42.85;101357.34;1678155;83;21629;-96
2022/07/04 08:30:26;;;;;;;3.45;2.12;;;;;;;26.15;43.29;101353.31;1678826;83;21055;-95
2022/07/04 08:32:55;;;;;;;6.20;2.37;;;;;;;25.88;43.65;101346.00;1678897;83;22292;-95
2022/07/04 08:35:23;;;;;;;5.87;2.15;;;;;;;25.64;43.90;101345.80;1677936;83;21165;-95
2022/07/04 08:37:53;;;;;;;3.77;2.37;;;;;;;25.35;44.06;101340.73;1678941;83;21093;-95
2022/07/04 08:40:22;;;;;;;4.33;2.33;;;;;;;25.12;44.40;101346.70;1672575;84;21090;-94
2022/07/04 08:42:50;;;;;;;4.58;2.00;;;;;;;24.90;44.77;101349.53;1672692;84;21102;-93
2022/07/04 08:45:20;;;;;;;6.03;3.00;;;;;;;24.67;45.08;101346.94;1672759;84;21750;-93
2022/07/04 08:47:47;;;;;;;6.95;4.05;;;;;;;24.48;45.54;101349.63;1647794;85;21496;-95
2022/07/04 08:50:18;;;;;;;7.90;4.70;;;;;;;24.30;46.02;101350.91;1672614;84;21125;-94
2022/07/04 08:52:50;;;;;;;6.75;3.92;;;;;;;24.16;46.40;101363.34;1653304;85;21151;-94
2022/07/04 08:58:26;;;;;;;7.55;3.60;;;;;;;23.93;47.13;101369.18;1657350;85;21806;-94
2022/07/04 09:00:53;;;;;;;3.83;2.55;;;;;;;23.76;47.64;101375.77;1672473;84;21086;-94
2022/07/04 09:03:20;;;;;;;4.08;1.95;;;;;;;23.58;48.11;101373.44;1653303;85;21899;-94
2022/07/04 09:05:50;;;;;;;4.08;1.82;;;;;;;23.37;48.31;101371.58;1672487;85;21316;-93
2022/07/04 09:08:17;;;;;;;1.70;1.60;;;;;;;23.23;48.57;101369.59;1671914;85;22240;-93
2022/07/04 09:10:47;;;;;;;3.65;1.60;;;;;;;23.14;48.75;101347.80;1672164;84;21833;-93
2022/07/04 09:13:14;;;;;;;2.10;1.65;;;;;;;23.06;49.09;101341.69;1671498;84;21022;-94
2022/07/04 09:15:45;;;;;;;7.22;1.60;;;;;;;23.03;49.35;101323.84;1671862;84;21082;-94
2022/07/04 09:18:32;;;;;;;5.22;1.90;;;;;;;23.01;49.63;101296.11;1653222;84;21086;-94
2022/07/04 09:21:04;;;;;;;5.53;2.98;;;;;;;22.96;49.91;101251.00;1672387;84;21094;-93
2022/07/04 09:23:33;;;;;;;4.70;2.65;;;;;;;22.88;50.19;101238.16;1672411;84;21865;-94
2022/07/04 09:26:19;;;;;;;8.25;2.40;;;;;;;22.87;50.37;101231.03;1653128;85;21090;-94
2022/07/04 09:28:56;;;;;;;3.60;2.72;;;;;;;22.85;50.52;101177.84;1672390;85;21106;-94
2022/07/04 09:31:31;;;;;;;2.22;1.90;;;;;;;22.83;50.77;101230.66;1672577;85;21253;-94
2022/07/04 09:34:03;;;;;;;3.02;1.90;;;;;;;22.86;51.20;101245.34;1672390;84;21094;-94
2022/07/04 09:36:41;;;;;;;12.20;2.80;;;;;;;22.89;51.41;101235.91;1673177;84;22186;-94
2022/07/04 09:39:21;;;;;;;4.70;2.85;;;;;;;22.89;51.68;101222.02;1649860;85;21149;-94
2022/07/04 09:42:03;;;;;;;5.00;3.25;;;;;;;23.13;51.73;101236.41;1674024;84;21666;-94
2022/07/04 09:44:48;;;;;;;5.22;3.17;;;;;;;23.31;51.66;101244.08;1692066;83;21085;-94
2022/07/04 09:47:28;;;;;;;3.65;2.70;;;;;;;23.60;51.62;101256.92;1685312;83;21065;-95
2022/07/04 09:50:08;;;;;;;2.30;1.70;;;;;;;23.79;51.26;101250.73;1667308;84;22610;-95
2022/07/04 09:53:01;;;;;;;6.83;1.98;;;;;;;23.96;51.09;101258.89;1683033;83;21047;-94
2022/07/04 09:55:38;;;;;;;2.37;1.75;;;;;;;24.15;50.95;101258.88;1683263;83;21077;-94
2022/07/04 09:58:14;;;;;;;3.98;1.37;;;;;;;24.31;50.69;101262.58;1679360;84;21046;-94
2022/07/04 10:00:43;;;;;;;4.35;1.70;;;;;;;24.43;50.40;101269.86;1686444;84;21094;-95
2022/07/04 10:03:25;;;;;;;2.27;1.45;;;;;;;24.44;50.17;101276.16;1679448;83;22078;-95
2022/07/04 10:06:15;;;;;;;3.12;1.77;;;;;;;24.42;50.05;101278.00;1665355;84;21069;-95
2022/07/04 10:08:43;;;;;;;2.12;1.82;;;;;;;24.37;49.99;101287.51;1666319;84;21501;-95
2022/07/04 10:11:10;;;;;;;10.03;2.30;;;;;;;24.34;50.09;101288.04;1663900;85;21106;-94
2022/07/04 10:13:39;;;;;;;6.87;2.22;;;;;;;24.30;50.05;101289.04;1646268;86;21166;-96
2022/07/04 10:16:07;;;;;;;4.87;2.02;;;;;;;24.29;50.28;101285.47;1669687;85;22162;-95
2022/07/04 10:18:35;;;;;;;6.45;2.05;;;;;;;24.44;50.40;101289.13;1669666;84;21102;-94
2022/07/04 10:21:02;;;;;;;11.38;2.15;;;;;;;24.56;50.27;101289.33;1669794;85;21380;-94
2022/07/04 10:23:35;;;;;;;3.50;2.00;;;;;;;24.65;50.28;101289.56;1669647;84;21099;-94
2022/07/04 10:26:00;;;;;;;3.02;2.20;;;;;;;24.73;50.31;101289.38;1669310;84;21122;-94
2022/07/04 10:28:29;;;;;;;3.75;2.00;;;;;;;24.80;50.13;101284.27;1649461;85;21729;-94
2022/07/04 10:30:57;;;;;;;2.25;1.75;;;;;;;24.79;50.13;101279.31;1652384;84;21082;-95
2022/07/04 10:33:28;;;;;;;4.58;1.90;;;;;;;24.92;50.35;101280.35;1691183;83;21078;-95
2022/07/04 10:36:03;;;;;;;5.70;1.98;;;;;;;25.11;50.14;101273.53;1671713;85;21142;-94
2022/07/04 10:38:38;;;;;;;3.05;1.70;;;;;;;25.29;50.07;101274.89;1673365;84;21075;-95
2022/07/04 10:41:06;;;;;;;1.90;1.40;;;;;;;25.52;49.98;101275.57;1672989;84;21762;-93
2022/07/04 10:43:37;;;;;;;3.60;1.55;;;;;;;25.80;49.80;101272.07;1649446;86;21570;-93
2022/07/04 10:46:19;;;;;;;3.08;1.42;;;;;;;25.94;49.57;101268.97;1657023;83;21052;-93
2022/07/04 10:49:18;;;;;;;3.02;1.65;;;;;;;26.17;49.44;101268.27;1682240;83;21594;-94
2022/07/04 10:51:50;;;;;;;2.60;1.67;;;;;;;26.28;48.82;101263.42;1653661;83;21083;-93
2022/07/04 10:54:38;;;;;;;;;;;;;;;26.28;48.59;101267.94;1661802;84;21023;-95
2022/07/04 10:57:19;;;;;;;2.90;1.37;;;;;;;26.27;48.56;101268.86;1658068;85;20509;-94
2022/07/04 10:59:59;;;;;;;1.60;1.50;;;;;;;26.23;48.38;101265.84;1644738;85;21106;-95
2022/07/04 11:02:40;;;;;;;3.67;1.85;;;;;;;26.16;48.42;101272.77;1680705;83;21110;-93
2022/07/04 11:05:09;;;;;;;3.90;1.80;;;;;;;26.25;49.04;101265.33;1680385;83;21082;-95
2022/07/04 11:07:42;;;;;;;3.62;2.00;;;;;;;26.34;48.77;101258.28;1658659;83;21698;-95
2022/07/04 11:13:03;;;;;;;2.52;2.02;;;;;;;26.53;48.67;101259.43;1678207;83;21086;-94
2022/07/04 11:15:40;;;;;;;2.05;1.80;;;;;;;26.51;48.21;101259.08;1681249;83;21079;-95
2022/07/04 11:18:13;;;;;;;2.10;1.90;;;;;;;26.47;48.26;101258.30;1681325;83;21107;-95
2022/07/04 11:20:46;;;;;;;2.55;1.92;;;;;;;26.45;48.04;101257.94;1679618;85;21762;-96
2022/07/04 11:23:20;;;;;;;2.80;2.10;;;;;;;26.51;47.72;101260.43;1680452;83;21074;-93
2022/07/04 11:26:02;;;;;;;2.22;1.85;;;;;;;26.47;47.42;101260.13;1660157;85;21087;-96
2022/07/04 11:28:33;;;;;;;5.00;2.20;;;;;;;26.45;47.80;101265.56;1660345;83;21142;-96
2022/07/04 11:31:02;;;;;;;3.95;2.10;;;;;;;26.50;47.90;101257.30;1680097;83;21178;-96
2022/07/04 11:33:35;;;;;;;5.37;2.10;;;;;;;26.60;47.80;101262.86;1639437;85;22718;-96
2022/07/04 11:36:08;;;;;;;3.37;2.10;;;;;;;26.67;47.56;101260.37;1668344;83;21084;-93
2022/07/04 11:38:59;;;;;;;4.90;2.00;;;;;;;26.66;46.95;101259.06;1655701;85;21067;-93
2022/07/04 11:47:17;;;;;;;4.47;1.80;;;;;;;26.64;46.90;101250.14;1630153;87;21988;-95
2022/07/04 11:49:53;;;;;;;2.15;1.82;;;;;;;26.63;46.60;101251.93;1647604;85;21086;-94
2022/07/04 11:52:41;;;;;;;4.20;1.80;;;;;;;26.60;46.68;101253.41;1657918;85;21140;-93
2022/07/04 11:55:11;;;;;;;2.40;1.82;;;;;;;26.57;46.44;101248.94;1652133;85;21372;-93
2022/07/04 11:57:39;;;;;;;3.27;1.40;;;;;;;26.53;46.32;101249.98;1647541;85;21083;-95
2022/07/04 12:00:21;;;;;;;1.50;1.40;;;;;;;26.52;46.35;101251.38;1648387;85;21765;-94
2022/07/04 12:02:49;;;;;;;1.60;1.25;;;;;;;26.55;46.23;101242.71;1647819;85;21102;-95
2022/07/04 12:05:16;;;;;;;1.45;1.12;;;;;;;26.59;46.02;101255.64;1647549;85;21063;-94
2022/07/04 12:07:48;;;;;;;1.65;1.30;;;;;;;26.61;45.59;101246.18;1649458;85;21091;-94
2022/07/04 12:10:18;;;;;;;1.20;1.10;;;;;;;26.64;45.28;101246.09;1652043;85;21791;-95
2022/07/04 12:12:59;;;;;;;1.20;1.10;;;;;;;26.64;44.78;101251.48;1674690;84;22088;-95
2022/07/04 12:15:41;;;;;;;1.40;1.20;;;;;;;26.66;44.61;101245.56;1656817;85;20936;-95
2022/07/04 12:18:29;;;;;;;1.40;1.30;;;;;;;26.69;44.57;101249.48;1663674;84;21534;-94
2022/07/04 12:20:57;;;;;;;1.87;1.77;;;;;;;26.72;44.31;101240.81;1664671;85;21108;-95
2022/07/04 12:23:26;;;;;;;1.98;1.40;;;;;;;26.75;44.23;101236.67;1651556;85;21166;-95
2022/07/04 12:25:53;;;;;;;3.20;1.40;;;;;;;26.86;44.54;101244.85;1651330;85;21729;-95
2022/07/04 12:28:21;;;;;;;1.15;1.05;;;;;;;26.98;44.29;101239.51;1654151;85;21083;-94
2022/07/04 12:30:57;;;;;;;5.30;3.55;;;;;;;26.96;44.06;101241.78;1656825;85;21099;-95